Time;durP1;ratioP1;P1;durP2;ratioP2;P2;SDS_P1;SDS_P2;PMS_P1;PMS_P2;Temp;Humidity;BMP_temperature;BMP_pressure;BME280_temperature;BME280_humidity;BME280_pressure;Samples;Min_cycle;Max_cycle;Signal;HPM_P1;HPM_P2
2023/05/31 00:01:29;;;;;;;;;19.33;17.33;;;;;;;;5073184;28;45148;-79
2023/05/31 00:03:54;;;;;;;;;20.67;19.67;;;;;;;;5070150;28;45422;-80
2023/05/31 00:06:19;;;;;;;;;18.67;18.67;;;;;;;;5068449;28;48547;-79
2023/05/31 00:08:44;;;;;;;;;17.00;17.00;;;;;;;;5071460;28;45283;-80
2023/05/31 00:11:09;;;;;;;;;21.33;21.33;;;;;;;;5069968;28;45317;-79
2023/05/31 00:13:35;;;;;;;;;18.00;18.00;;;;;;;;5064371;28;45560;-78
2023/05/31 00:16:00;;;;;;;;;20.00;20.00;;;;;;;;5069888;28;47114;-79
2023/05/31 00:18:25;;;;;;;;;25.00;22.67;;;;;;;;5074351;28;45773;-79
2023/05/31 00:20:50;;;;;;;;;20.67;20.67;;;;;;;;5070929;28;45454;-79
2023/05/31 00:23:16;;;;;;;;;20.00;19.33;;;;;;;;5071203;28;46200;-78
2023/05/31 00:25:41;;;;;;;;;18.00;18.00;;;;;;;;5072039;28;48281;-79
2023/05/31 00:28:06;;;;;;;;;19.33;19.33;;;;;;;;5070417;28;45345;-79
2023/05/31 00:30:31;;;;;;;;;17.00;16.33;;;;;;;;5073563;28;45358;-79
2023/05/31 00:32:56;;;;;;;;;19.00;19.00;;;;;;;;5075141;28;45621;-79
2023/05/31 00:35:22;;;;;;;;;17.33;17.00;;;;;;;;5073095;28;45541;-79
2023/05/31 00:37:47;;;;;;;;;17.33;16.67;;;;;;;;5072386;28;45410;-80
2023/05/31 00:40:12;;;;;;;;;17.00;16.33;;;;;;;;5072405;28;45306;-80
2023/05/31 00:42:37;;;;;;;;;21.00;19.33;;;;;;;;5076276;28;45310;-79
2023/05/31 00:45:03;;;;;;;;;21.67;21.00;;;;;;;;5074611;28;45422;-79
2023/05/31 00:47:28;;;;;;;;;23.33;20.33;;;;;;;;5073893;28;45282;-80
2023/05/31 00:49:55;;;;;;;;;21.33;20.67;;;;;;;;5071860;28;45247;-79
2023/05/31 00:52:20;;;;;;;;;23.33;22.33;;;;;;;;5076051;28;45612;-79
2023/05/31 00:54:46;;;;;;;;;23.00;22.00;;;;;;;;5074449;28;46334;-79
2023/05/31 00:57:11;;;;;;;;;16.67;15.00;;;;;;;;5074840;28;45247;-80
2023/05/31 00:59:36;;;;;;;;;22.33;20.33;;;;;;;;5078279;28;44626;-79
2023/05/31 01:02:03;;;;;;;;;23.67;22.67;;;;;;;;5074623;28;45345;-79
2023/05/31 01:04:28;;;;;;;;;19.67;19.67;;;;;;;;5071156;28;45314;-79
2023/05/31 01:06:56;;;;;;;;;22.00;22.00;;;;;;;;5070021;28;45566;-79
2023/05/31 01:09:21;;;;;;;;;20.00;20.00;;;;;;;;5068706;28;45348;-79
2023/05/31 01:11:59;;;;;;;;;21.33;19.67;;;;;;;;5074411;28;45316;-79
2023/05/31 01:14:31;;;;;;;;;22.33;20.00;;;;;;;;5070261;28;45543;-79
2023/05/31 01:17:13;;;;;;;;;21.00;19.67;;;;;;;;5070061;28;45369;-79
2023/05/31 01:19:39;;;;;;;;;24.00;20.33;;;;;;;;5072105;28;45236;-79
2023/05/31 01:22:14;;;;;;;;;21.67;21.33;;;;;;;;5069140;28;46039;-79
2023/05/31 01:24:45;;;;;;;;;27.00;22.67;;;;;;;;5073466;28;45212;-80
2023/05/31 01:27:12;;;;;;;;;23.33;22.33;;;;;;;;5078171;28;45258;-80
2023/05/31 01:29:39;;;;;;;;;22.00;21.33;;;;;;;;5077315;28;45236;-80
2023/05/31 01:32:04;;;;;;;;;24.67;22.00;;;;;;;;5078999;28;45938;-79
2023/05/31 01:34:30;;;;;;;;;21.00;19.33;;;;;;;;5077796;28;46734;-80
2023/05/31 01:36:55;;;;;;;;;24.33;22.67;;;;;;;;5077305;28;45385;-79
2023/05/31 01:39:20;;;;;;;;;21.33;20.00;;;;;;;;5077355;28;45128;-79
2023/05/31 01:41:46;;;;;;;;;21.33;17.67;;;;;;;;5075811;28;45354;-79
2023/05/31 01:44:13;;;;;;;;;20.33;20.00;;;;;;;;5073498;28;47179;-79
2023/05/31 01:46:40;;;;;;;;;21.33;21.33;;;;;;;;5074039;28;45378;-80
2023/05/31 01:49:05;;;;;;;;;19.00;18.33;;;;;;;;5076196;28;44768;-79
2023/05/31 01:51:32;;;;;;;;;24.33;21.67;;;;;;;;5074619;28;47039;-79
2023/05/31 01:53:57;;;;;;;;;22.00;22.00;;;;;;;;5074694;28;47398;-79
2023/05/31 01:56:23;;;;;;;;;21.33;21.00;;;;;;;;5076361;28;45212;-80
2023/05/31 01:58:50;;;;;;;;;25.33;22.67;;;;;;;;5074279;28;45216;-79
2023/05/31 02:01:18;;;;;;;;;23.00;22.33;;;;;;;;5075502;28;45341;-79
2023/05/31 02:03:43;;;;;;;;;21.00;21.00;;;;;;;;5076443;28;46291;-79
2023/05/31 02:06:12;;;;;;;;;21.67;21.67;;;;;;;;5075340;28;45365;-79
2023/05/31 02:08:37;;;;;;;;;19.67;19.67;;;;;;;;5074703;28;44641;-79
2023/05/31 02:11:03;;;;;;;;;21.33;21.00;;;;;;;;5076020;28;45926;-79
2023/05/31 02:13:29;;;;;;;;;23.00;22.67;;;;;;;;5075890;28;45206;-79
2023/05/31 02:15:55;;;;;;;;;24.00;23.00;;;;;;;;5077055;28;45187;-79
2023/05/31 02:18:21;;;;;;;;;21.00;20.00;;;;;;;;5076250;28;45446;-79
2023/05/31 02:20:46;;;;;;;;;22.33;20.67;;;;;;;;5073576;28;45305;-79
2023/05/31 02:23:12;;;;;;;;;22.67;22.67;;;;;;;;5076848;28;47503;-80
2023/05/31 02:25:37;;;;;;;;;26.00;24.00;;;;;;;;5077162;28;45208;-80
2023/05/31 02:28:02;;;;;;;;;23.00;23.00;;;;;;;;5081066;28;44650;-80
2023/05/31 02:30:28;;;;;;;;;25.00;23.00;;;;;;;;5077105;28;45076;-79
2023/05/31 02:32:53;;;;;;;;;24.00;22.33;;;;;;;;5073452;28;48341;-79
2023/05/31 02:35:19;;;;;;;;;21.67;21.67;;;;;;;;5074136;28;44866;-79
2023/05/31 02:37:45;;;;;;;;;21.00;21.00;;;;;;;;5072617;28;45517;-79
2023/05/31 02:40:10;;;;;;;;;25.33;24.00;;;;;;;;5076427;28;45362;-79
2023/05/31 02:42:36;;;;;;;;;21.33;21.33;;;;;;;;5074609;28;45421;-79
2023/05/31 02:45:01;;;;;;;;;27.00;24.33;;;;;;;;5074130;28;45203;-79
2023/05/31 02:47:27;;;;;;;;;22.00;22.00;;;;;;;;5071945;28;45254;-79
2023/05/31 02:49:52;;;;;;;;;25.00;22.00;;;;;;;;5077325;28;45139;-80
2023/05/31 02:52:17;;;;;;;;;23.67;20.67;;;;;;;;5074953;28;45446;-79
2023/05/31 02:54:43;;;;;;;;;26.67;24.00;;;;;;;;5076045;28;45248;-79
2023/05/31 02:57:08;;;;;;;;;23.67;23.67;;;;;;;;5077397;28;44595;-80
2023/05/31 02:59:33;;;;;;;;;25.33;24.33;;;;;;;;5076351;28;45141;-79
2023/05/31 03:01:59;;;;;;;;;24.33;24.00;;;;;;;;5073047;28;47074;-80
2023/05/31 03:04:25;;;;;;;;;23.67;22.33;;;;;;;;5073554;28;45310;-80
2023/05/31 03:06:50;;;;;;;;;23.33;22.00;;;;;;;;5078041;28;45347;-79
2023/05/31 03:09:16;;;;;;;;;23.00;22.33;;;;;;;;5076683;28;45974;-80
2023/05/31 03:11:42;;;;;;;;;24.00;22.00;;;;;;;;5075242;28;45306;-79
2023/05/31 03:14:07;;;;;;;;;22.00;21.67;;;;;;;;5078651;28;45299;-79
2023/05/31 03:16:33;;;;;;;;;23.00;21.00;;;;;;;;5079067;28;44721;-79
2023/05/31 03:18:59;;;;;;;;;27.00;23.67;;;;;;;;5077338;28;45317;-79
2023/05/31 03:21:24;;;;;;;;;22.67;22.67;;;;;;;;5077841;28;45444;-79
2023/05/31 03:23:49;;;;;;;;;20.00;19.33;;;;;;;;5073838;28;45447;-79
2023/05/31 03:26:14;;;;;;;;;24.33;23.00;;;;;;;;5075241;28;45247;-80
2023/05/31 03:28:40;;;;;;;;;21.33;21.33;;;;;;;;5075752;28;45261;-79
2023/05/31 03:31:05;;;;;;;;;24.67;24.67;;;;;;;;5077368;27;45239;-79
2023/05/31 03:33:31;;;;;;;;;22.33;21.00;;;;;;;;5077382;28;44652;-79
2023/05/31 03:35:56;;;;;;;;;27.00;23.00;;;;;;;;5070873;28;45179;-79
2023/05/31 03:38:21;;;;;;;;;22.33;20.00;;;;;;;;5071331;28;45473;-79
2023/05/31 03:40:47;;;;;;;;;23.33;23.33;;;;;;;;5075051;28;46132;-79
2023/05/31 03:43:12;;;;;;;;;23.33;22.33;;;;;;;;5074538;28;45291;-79
2023/05/31 03:45:37;;;;;;;;;23.67;23.33;;;;;;;;5073276;28;45349;-79
2023/05/31 03:48:02;;;;;;;;;24.67;22.67;;;;;;;;5071912;28;45277;-79
2023/05/31 03:50:27;;;;;;;;;25.33;24.33;;;;;;;;5076044;28;45149;-79
2023/05/31 03:52:53;;;;;;;;;28.67;25.33;;;;;;;;5072478;28;45962;-79
2023/05/31 03:55:18;;;;;;;;;28.67;25.67;;;;;;;;5072900;28;45327;-80
2023/05/31 03:57:43;;;;;;;;;25.67;25.00;;;;;;;;5079119;28;45566;-79
2023/05/31 04:00:11;;;;;;;;;21.33;20.33;;;;;;;;5068974;28;47227;-79
2023/05/31 04:02:36;;;;;;;;;23.33;22.67;;;;;;;;5078084;28;45283;-80
2023/05/31 04:05:01;;;;;;;;;29.33;28.00;;;;;;;;5071607;28;45473;-79
2023/05/31 04:07:26;;;;;;;;;25.33;22.67;;;;;;;;5074393;28;45628;-79
2023/05/31 04:09:51;;;;;;;;;21.33;21.00;;;;;;;;5073957;28;46877;-79
2023/05/31 04:12:16;;;;;;;;;26.00;23.33;;;;;;;;5073186;28;45324;-79
2023/05/31 04:14:42;;;;;;;;;25.67;24.33;;;;;;;;5069561;28;45123;-79
2023/05/31 04:17:07;;;;;;;;;26.00;24.67;;;;;;;;5071993;28;45535;-79
2023/05/31 04:19:32;;;;;;;;;22.00;22.00;;;;;;;;5076652;28;45625;-79
2023/05/31 04:21:57;;;;;;;;;26.67;25.67;;;;;;;;5076181;28;45223;-79
2023/05/31 04:24:22;;;;;;;;;26.00;24.33;;;;;;;;5078506;28;45257;-79
2023/05/31 04:26:48;;;;;;;;;25.33;24.33;;;;;;;;5072414;28;45298;-79
2023/05/31 04:29:13;;;;;;;;;24.00;22.67;;;;;;;;5070257;27;45331;-79
2023/05/31 04:31:38;;;;;;;;;24.00;22.67;;;;;;;;5071406;28;45295;-78
2023/05/31 04:34:04;;;;;;;;;24.67;21.33;;;;;;;;5071627;28;45610;-79
2023/05/31 04:36:32;;;;;;;;;26.33;26.33;;;;;;;;5076131;27;45886;-79
2023/05/31 04:38:58;;;;;;;;;28.67;26.00;;;;;;;;5077345;28;45326;-79
2023/05/31 04:41:25;;;;;;;;;70.00;54.25;;;;;;;;5080497;27;44597;-79
2023/05/31 04:43:52;;;;;;;;;45.00;37.00;;;;;;;;5081839;27;44574;-78
2023/05/31 04:46:17;;;;;;;;;31.67;29.33;;;;;;;;5078170;28;45393;-79
2023/05/31 04:48:42;;;;;;;;;49.25;37.50;;;;;;;;5078811;28;45243;-79
2023/05/31 04:51:07;;;;;;;;;25.00;23.67;;;;;;;;5077492;28;44735;-79
2023/05/31 04:53:33;;;;;;;;;29.00;23.33;;;;;;;;5080171;28;44716;-78
2023/05/31 04:56:04;;;;;;;;;26.33;20.67;;;;;;;;5081915;27;44739;-78
2023/05/31 04:58:29;;;;;;;;;71.50;59.25;;;;;;;;5078290;28;45077;-79
2023/05/31 05:00:55;;;;;;;;;29.33;26.33;;;;;;;;5071792;28;45402;-79
2023/05/31 05:03:20;;;;;;;;;45.00;35.67;;;;;;;;5074652;28;45227;-79
2023/05/31 05:05:46;;;;;;;;;49.25;39.75;;;;;;;;5079514;28;45301;-79
2023/05/31 05:08:11;;;;;;;;;55.25;44.00;;;;;;;;5079070;28;45082;-80
2023/05/31 05:10:36;;;;;;;;;25.00;24.33;;;;;;;;5074479;28;45273;-80
2023/05/31 05:13:02;;;;;;;;;25.00;24.67;;;;;;;;5060596;28;45403;-79
2023/05/31 05:15:27;;;;;;;;;19.67;18.33;;;;;;;;5062198;28;45338;-79
2023/05/31 05:17:52;;;;;;;;;25.00;24.00;;;;;;;;5061647;28;47486;-79
2023/05/31 05:20:18;;;;;;;;;24.67;22.33;;;;;;;;5062008;28;45271;-78
2023/05/31 05:22:49;;;;;;;;;27.00;26.33;;;;;;;;5044442;28;45490;-79
2023/05/31 05:25:14;;;;;;;;;22.33;18.33;;;;;;;;5037958;28;45614;-79
2023/05/31 05:27:39;;;;;;;;;28.33;23.00;;;;;;;;5042287;28;46302;-79
2023/05/31 05:30:05;;;;;;;;;24.33;21.00;;;;;;;;5056904;28;45307;-80
2023/05/31 05:32:30;;;;;;;;;23.33;21.67;;;;;;;;5062422;28;45260;-80
2023/05/31 05:34:55;;;;;;;;;23.67;23.67;;;;;;;;5060638;28;45310;-81
2023/05/31 05:37:20;;;;;;;;;23.00;21.67;;;;;;;;5061715;28;46739;-79
2023/05/31 05:39:45;;;;;;;;;23.67;22.00;;;;;;;;5058326;28;45275;-80
2023/05/31 05:42:11;;;;;;;;;23.00;20.00;;;;;;;;5061746;28;45318;-77
2023/05/31 05:44:37;;;;;;;;;22.00;19.67;;;;;;;;5061032;28;45397;-80
2023/05/31 05:47:02;;;;;;;;;24.67;21.33;;;;;;;;5060729;28;45958;-79
2023/05/31 05:49:27;;;;;;;;;19.00;18.67;;;;;;;;5059805;28;45426;-80
2023/05/31 05:51:52;;;;;;;;;19.33;19.33;;;;;;;;5061227;28;45429;-81
2023/05/31 05:54:17;;;;;;;;;22.33;19.67;;;;;;;;5059438;28;47163;-81
2023/05/31 05:56:43;;;;;;;;;20.00;20.00;;;;;;;;5062071;28;45444;-79
2023/05/31 05:59:08;;;;;;;;;36.00;30.00;;;;;;;;5060948;28;45318;-81
2023/05/31 06:01:35;;;;;;;;;23.33;20.00;;;;;;;;5056788;28;45395;-81
2023/05/31 06:04:00;;;;;;;;;25.33;21.67;;;;;;;;5046373;28;45974;-82
2023/05/31 06:06:26;;;;;;;;;21.00;19.00;;;;;;;;5058397;28;46169;-79
2023/05/31 06:08:51;;;;;;;;;55.75;43.00;;;;;;;;5061938;28;45292;-80
2023/05/31 06:11:18;;;;;;;;;45.00;37.67;;;;;;;;5066339;28;45204;-77
2023/05/31 06:13:43;;;;;;;;;81.25;73.50;;;;;;;;5060711;28;46944;-77
2023/05/31 06:16:08;;;;;;;;;41.33;34.00;;;;;;;;5062171;28;47818;-78
2023/05/31 06:18:34;;;;;;;;;54.00;42.50;;;;;;;;5060696;28;45844;-78
2023/05/31 06:20:59;;;;;;;;;30.67;28.67;;;;;;;;5060849;28;45350;-78
2023/05/31 06:23:25;;;;;;;;;30.00;28.33;;;;;;;;5060998;28;46227;-78
2023/05/31 06:25:51;;;;;;;;;36.67;31.67;;;;;;;;5060737;28;48048;-78
2023/05/31 06:28:16;;;;;;;;;25.00;23.00;;;;;;;;5062516;28;45354;-79
2023/05/31 06:30:41;;;;;;;;;22.67;22.67;;;;;;;;5061235;28;45350;-79
2023/05/31 06:33:07;;;;;;;;;33.33;30.00;;;;;;;;5061781;28;45452;-78
2023/05/31 06:35:32;;;;;;;;;58.00;47.25;;;;;;;;5062257;28;45482;-79
2023/05/31 06:37:57;;;;;;;;;28.67;26.00;;;;;;;;5060528;28;45390;-78
2023/05/31 06:40:23;;;;;;;;;29.33;28.33;;;;;;;;5061244;28;45468;-79
2023/05/31 06:42:48;;;;;;;;;77.50;69.25;;;;;;;;5061634;28;45263;-79
2023/05/31 06:45:14;;;;;;;;;71.50;61.75;;;;;;;;5061763;28;46485;-80
2023/05/31 06:47:40;;;;;;;;;42.00;34.67;;;;;;;;5066591;28;45304;-77
2023/05/31 06:50:05;;;;;;;;;22.33;21.00;;;;;;;;5067885;28;45347;-78
2023/05/31 06:52:31;;;;;;;;;60.25;47.50;;;;;;;;5062213;28;45520;-78
2023/05/31 06:54:56;;;;;;;;;19.67;17.67;;;;;;;;5058904;28;46213;-77
2023/05/31 06:57:21;;;;;;;;;18.33;18.00;;;;;;;;5067056;28;45714;-77
2023/05/31 06:59:46;;;;;;;;;22.00;19.67;;;;;;;;5059216;28;45244;-78
2023/05/31 07:02:12;;;;;;;;;17.33;15.33;;;;;;;;5050074;28;45352;-79
2023/05/31 07:04:37;;;;;;;;;16.67;16.67;;;;;;;;5041338;28;46984;-78
2023/05/31 07:07:03;;;;;;;;;16.00;16.00;;;;;;;;5041884;28;45434;-81
2023/05/31 07:09:28;;;;;;;;;28.00;25.00;;;;;;;;5042207;28;45294;-79
2023/05/31 07:11:53;;;;;;;;;45.00;36.67;;;;;;;;5048136;28;46401;-78
2023/05/31 07:14:19;;;;;;;;;73.50;64.75;;;;;;;;5042856;28;45319;-79
2023/05/31 07:16:44;;;;;;;;;50.33;41.00;;;;;;;;5043661;28;45257;-79
2023/05/31 07:19:09;;;;;;;;;94.50;79.50;;;;;;;;5041607;28;45225;-80
2023/05/31 07:21:34;;;;;;;;;66.25;54.00;;;;;;;;5039117;28;46033;-79
2023/05/31 07:24:00;;;;;;;;;35.67;30.33;;;;;;;;5040533;28;45961;-78
2023/05/31 07:26:25;;;;;;;;;54.25;42.50;;;;;;;;5040529;28;45176;-79
2023/05/31 07:28:53;;;;;;;;;52.25;41.75;;;;;;;;5045416;28;45296;-79
2023/05/31 07:31:19;;;;;;;;;64.00;48.25;;;;;;;;5060911;28;45282;-80
2023/05/31 07:33:44;;;;;;;;;74.50;67.25;;;;;;;;5059197;28;47494;-80
2023/05/31 07:36:09;;;;;;;;;27.67;24.00;;;;;;;;5061737;28;45275;-83
2023/05/31 07:38:35;;;;;;;;;68.75;56.00;;;;;;;;5058879;28;45968;-81
2023/05/31 07:41:00;;;;;;;;;128.50;111.25;;;;;;;;5057528;28;45549;-80
2023/05/31 07:43:25;;;;;;;;;47.00;38.75;;;;;;;;5059265;28;46570;-81
2023/05/31 07:45:51;;;;;;;;;14.67;14.33;;;;;;;;5060503;28;45477;-80
2023/05/31 07:48:17;;;;;;;;;12.00;10.67;;;;;;;;5059610;28;45214;-81
2023/05/31 07:50:42;;;;;;;;;85.00;77.50;;;;;;;;5059365;28;45599;-81
2023/05/31 07:53:07;;;;;;;;;68.25;56.50;;;;;;;;5059956;28;47007;-81
2023/05/31 07:55:32;;;;;;;;;36.67;32.67;;;;;;;;5060763;28;45452;-82
2023/05/31 07:57:57;;;;;;;;;114.75;99.75;;;;;;;;5058912;28;45328;-79
2023/05/31 08:00:23;;;;;;;;;65.00;53.00;;;;;;;;5059390;28;47468;-81
2023/05/31 08:02:48;;;;;;;;;64.75;52.00;;;;;;;;5059846;28;45420;-79
2023/05/31 08:05:14;;;;;;;;;50.00;41.67;;;;;;;;5058974;28;45585;-82
2023/05/31 08:07:39;;;;;;;;;48.33;38.33;;;;;;;;5059134;28;45227;-81
2023/05/31 08:10:05;;;;;;;;;30.33;27.67;;;;;;;;5058829;28;45473;-83
2023/05/31 08:12:30;;;;;;;;;9.67;9.67;;;;;;;;5057100;28;46507;-80
2023/05/31 08:14:55;;;;;;;;;35.00;28.67;;;;;;;;5059423;28;45614;-82
2023/05/31 08:17:20;;;;;;;;;99.25;91.00;;;;;;;;5059720;28;45354;-82
2023/05/31 08:19:45;;;;;;;;;48.33;38.67;;;;;;;;5059306;28;45277;-81
2023/05/31 08:22:11;;;;;;;;;21.67;20.33;;;;;;;;5059585;28;46497;-81
2023/05/31 08:24:36;;;;;;;;;45.67;36.00;;;;;;;;5059605;28;45349;-80
2023/05/31 08:27:01;;;;;;;;;46.33;36.00;;;;;;;;5059693;28;45524;-80
2023/05/31 08:29:27;;;;;;;;;29.00;27.00;;;;;;;;5059559;28;45369;-80
2023/05/31 08:31:52;;;;;;;;;13.33;11.67;;;;;;;;5059389;28;47413;-80
2023/05/31 08:34:19;;;;;;;;;10.00;9.00;;;;;;;;5059487;28;45374;-81
2023/05/31 08:36:44;;;;;;;;;18.00;17.00;;;;;;;;5059006;28;45741;-83
2023/05/31 08:39:10;;;;;;;;;12.33;12.33;;;;;;;;5058948;28;45503;-83
2023/05/31 08:41:42;;;;;;;;;56.25;42.50;;;;;;;;5059603;28;45519;-79
2023/05/31 08:44:07;;;;;;;;;13.67;13.00;;;;;;;;5059778;28;45345;-79
2023/05/31 08:46:32;;;;;;;;;23.00;21.67;;;;;;;;5060537;28;45287;-80
2023/05/31 08:49:05;;;;;;;;;25.67;22.67;;;;;;;;5059255;28;47455;-81
2023/05/31 08:51:31;;;;;;;;;10.67;10.67;;;;;;;;5060181;28;46415;-79
2023/05/31 08:53:57;;;;;;;;;15.67;15.00;;;;;;;;5059144;28;45346;-80
2023/05/31 08:56:23;;;;;;;;;34.67;28.00;;;;;;;;5059285;28;45354;-80
2023/05/31 08:58:49;;;;;;;;;14.00;13.00;;;;;;;;5058956;28;46495;-80
2023/05/31 09:01:14;;;;;;;;;29.00;25.00;;;;;;;;5058661;28;45573;-78
2023/05/31 09:03:40;;;;;;;;;53.00;40.67;;;;;;;;5057164;28;45393;-80
2023/05/31 09:06:05;;;;;;;;;16.67;16.67;;;;;;;;5055545;28;45403;-81
2023/05/31 09:08:33;;;;;;;;;16.67;13.67;;;;;;;;5056796;28;45400;-77
2023/05/31 09:10:58;;;;;;;;;34.67;30.00;;;;;;;;5056642;28;46455;-80
2023/05/31 09:13:23;;;;;;;;;15.67;15.00;;;;;;;;5056214;28;45390;-80
2023/05/31 09:15:49;;;;;;;;;54.67;43.67;;;;;;;;5057634;28;45350;-81
2023/05/31 09:18:15;;;;;;;;;9.00;9.00;;;;;;;;5059280;28;45326;-78
2023/05/31 09:20:41;;;;;;;;;9.00;8.00;;;;;;;;5059116;28;45275;-79
2023/05/31 09:23:07;;;;;;;;;39.33;32.33;;;;;;;;5056833;28;45373;-81
2023/05/31 09:25:49;;;;;;;;;46.00;36.67;;;;;;;;5057100;28;45361;-80
2023/05/31 09:28:14;;;;;;;;;10.00;9.33;;;;;;;;5058961;28;45300;-78
2023/05/31 09:30:40;;;;;;;;;60.50;47.50;;;;;;;;5061826;28;45352;-81
2023/05/31 09:33:06;;;;;;;;;10.33;10.33;;;;;;;;5059123;28;45300;-80
2023/05/31 09:35:32;;;;;;;;;14.67;13.67;;;;;;;;5059042;28;45354;-81
2023/05/31 09:37:57;;;;;;;;;66.50;56.50;;;;;;;;5058319;28;45397;-81
2023/05/31 09:40:23;;;;;;;;;66.75;57.50;;;;;;;;5059371;28;46424;-81
2023/05/31 09:42:49;;;;;;;;;50.00;39.67;;;;;;;;5059324;28;45319;-82
2023/05/31 09:45:14;;;;;;;;;18.00;17.33;;;;;;;;5062050;28;45244;-83
2023/05/31 09:47:39;;;;;;;;;38.33;32.00;;;;;;;;5062163;28;46413;-82
2023/05/31 09:50:08;;;;;;;;;24.00;22.33;;;;;;;;5062212;28;48306;-82
2023/05/31 09:52:37;;;;;;;;;10.33;10.33;;;;;;;;5062525;28;45666;-80
2023/05/31 09:55:06;;;;;;;;;10.00;10.00;;;;;;;;5061202;28;45362;-78
2023/05/31 09:57:33;;;;;;;;;8.00;8.00;;;;;;;;5062319;28;45548;-82
2023/05/31 09:59:59;;;;;;;;;23.33;22.00;;;;;;;;5062929;28;46332;-81
2023/05/31 10:02:25;;;;;;;;;14.67;11.33;;;;;;;;5062897;28;45314;-80
2023/05/31 10:04:51;;;;;;;;;9.33;9.33;;;;;;;;5060896;28;45534;-84
2023/05/31 10:07:18;;;;;;;;;36.33;27.67;;;;;;;;5061118;28;45702;-78
2023/05/31 10:09:43;;;;;;;;;39.33;30.67;;;;;;;;5062735;28;45377;-79
2023/05/31 10:12:08;;;;;;;;;49.00;40.00;;;;;;;;5062334;28;45277;-78
2023/05/31 10:14:38;;;;;;;;;24.67;22.00;;;;;;;;5060649;28;45379;-78
2023/05/31 10:17:05;;;;;;;;;13.00;11.33;;;;;;;;5060674;28;46222;-76
2023/05/31 10:19:53;;;;;;;;;40.00;34.00;;;;;;;;5060520;28;48103;-77
2023/05/31 10:22:19;;;;;;;;;54.00;42.67;;;;;;;;5060425;28;45382;-79
2023/05/31 10:24:44;;;;;;;;;58.67;46.00;;;;;;;;5061700;28;45359;-78
2023/05/31 10:27:36;;;;;;;;;34.33;29.67;;;;;;;;5061872;28;45287;-78
2023/05/31 10:30:05;;;;;;;;;35.33;28.33;;;;;;;;5060274;28;45439;-77
2023/05/31 10:32:34;;;;;;;;;8.33;8.00;;;;;;;;5061921;28;45378;-78
2023/05/31 10:35:00;;;;;;;;;57.50;46.25;;;;;;;;5062032;28;45216;-78
2023/05/31 10:37:25;;;;;;;;;9.33;9.33;;;;;;;;5061169;28;45461;-78
2023/05/31 10:40:09;;;;;;;;;40.00;33.67;;;;;;;;5061632;28;46449;-80
2023/05/31 10:42:38;;;;;;;;;43.67;35.00;;;;;;;;5061730;28;45675;-79
2023/05/31 10:45:03;;;;;;;;;37.67;31.00;;;;;;;;5060327;28;45406;-78
2023/05/31 10:47:33;;;;;;;;;50.00;40.33;;;;;;;;5062038;28;45589;-77
2023/05/31 10:50:00;;;;;;;;;33.67;29.33;;;;;;;;5060955;28;45455;-78
2023/05/31 10:52:28;;;;;;;;;35.67;30.00;;;;;;;;5062018;28;45283;-79
2023/05/31 10:55:13;;;;;;;;;33.67;28.00;;;;;;;;5062647;28;45287;-79
2023/05/31 10:57:39;;;;;;;;;22.00;19.33;;;;;;;;5060952;28;45248;-79
2023/05/31 11:00:06;;;;;;;;;10.00;9.00;;;;;;;;5057895;28;46291;-77
2023/05/31 11:02:33;;;;;;;;;25.00;23.67;;;;;;;;5059168;28;45744;-76
2023/05/31 11:05:17;;;;;;;;;30.67;29.33;;;;;;;;5059463;28;45255;-78
2023/05/31 11:07:42;;;;;;;;;12.33;11.33;;;;;;;;5045305;28;45457;-79
2023/05/31 11:10:10;;;;;;;;;10.33;10.00;;;;;;;;5038383;28;46356;-78
2023/05/31 11:12:36;;;;;;;;;40.67;33.33;;;;;;;;5058143;28;45429;-79
2023/05/31 11:15:03;;;;;;;;;24.67;24.67;;;;;;;;5058520;28;45391;-79
2023/05/31 11:17:28;;;;;;;;;44.67;36.67;;;;;;;;5061275;28;45382;-77
2023/05/31 11:19:53;;;;;;;;;13.67;13.00;;;;;;;;5061317;28;46311;-85
2023/05/31 11:22:22;;;;;;;;;47.67;38.00;;;;;;;;5060508;28;45366;-80
2023/05/31 11:24:51;;;;;;;;;13.00;13.00;;;;;;;;5045543;28;45493;-77
2023/05/31 11:30:46;;;;;;;;;20.00;19.00;;;;;;;;5056860;28;45615;-78
2023/05/31 11:36:09;;;;;;;;;13.33;13.00;;;;;;;;5056678;28;45560;-77
2023/05/31 11:38:34;;;;;;;;;15.67;14.00;;;;;;;;5051874;28;45480;-76
2023/05/31 11:41:02;;;;;;;;;46.00;37.33;;;;;;;;5048041;28;47021;-77
2023/05/31 11:43:28;;;;;;;;;34.00;30.00;;;;;;;;5042092;28;45376;-78
2023/05/31 11:45:53;;;;;;;;;18.00;17.67;;;;;;;;5056115;28;45341;-77
2023/05/31 11:48:24;;;;;;;;;35.00;30.00;;;;;;;;5058959;28;47330;-80
2023/05/31 11:50:50;;;;;;;;;42.00;33.50;;;;;;;;5059092;28;46117;-79
2023/05/31 11:53:17;;;;;;;;;12.00;10.67;;;;;;;;5059024;28;45580;-79
2023/05/31 11:55:49;;;;;;;;;13.67;12.00;;;;;;;;5059209;28;45394;-79
2023/05/31 11:58:18;;;;;;;;;13.00;13.00;;;;;;;;5059267;28;45931;-77
2023/05/31 12:00:46;;;;;;;;;11.33;11.33;;;;;;;;5059908;28;45438;-77
2023/05/31 12:03:16;;;;;;;;;11.00;11.00;;;;;;;;5060084;28;45267;-76
2023/05/31 12:05:42;;;;;;;;;11.67;11.67;;;;;;;;5059421;28;45569;-77
2023/05/31 12:08:14;;;;;;;;;9.33;9.00;;;;;;;;5058060;28;45382;-76
2023/05/31 12:10:41;;;;;;;;;12.00;12.00;;;;;;;;5059147;28;46353;-78
2023/05/31 12:13:06;;;;;;;;;12.00;12.00;;;;;;;;5060144;28;45311;-78
2023/05/31 12:15:31;;;;;;;;;39.67;33.33;;;;;;;;5060045;28;45366;-84
2023/05/31 12:18:00;;;;;;;;;43.33;34.33;;;;;;;;5059559;28;45394;-78
2023/05/31 12:20:29;;;;;;;;;18.67;18.00;;;;;;;;5060002;28;46266;-79
2023/05/31 12:23:08;;;;;;;;;49.00;39.33;;;;;;;;5059860;28;45327;-82
2023/05/31 12:25:34;;;;;;;;;19.00;18.67;;;;;;;;5059361;28;45484;-79
2023/05/31 12:27:59;;;;;;;;;43.00;34.67;;;;;;;;5058462;28;46272;-79
2023/05/31 12:30:25;;;;;;;;;21.00;20.00;;;;;;;;5058456;28;47237;-78
2023/05/31 12:32:50;;;;;;;;;31.67;28.00;;;;;;;;5059946;28;45301;-79
2023/05/31 12:35:15;;;;;;;;;21.67;21.33;;;;;;;;5060196;28;45252;-79
2023/05/31 12:37:41;;;;;;;;;45.67;38.67;;;;;;;;5058127;28;46192;-78
2023/05/31 12:40:18;;;;;;;;;43.67;36.00;;;;;;;;5059896;28;45274;-80
2023/05/31 12:42:43;;;;;;;;;13.33;12.00;;;;;;;;5058708;28;45240;-79
2023/05/31 12:45:09;;;;;;;;;30.00;29.00;;;;;;;;5059971;28;45351;-81
2023/05/31 12:47:35;;;;;;;;;12.00;10.00;;;;;;;;5059784;28;45276;-81
2023/05/31 12:50:05;;;;;;;;;10.00;8.00;;;;;;;;5055181;28;46699;-80
2023/05/31 12:52:33;;;;;;;;;52.67;39.67;;;;;;;;5056575;28;45395;-79
2023/05/31 12:54:59;;;;;;;;;22.67;21.67;;;;;;;;5058693;28;45401;-81
2023/05/31 12:57:25;;;;;;;;;11.33;11.33;;;;;;;;5056782;28;46084;-79
2023/05/31 12:59:57;;;;;;;;;45.67;37.00;;;;;;;;5057814;28;48009;-79
2023/05/31 13:02:22;;;;;;;;;25.67;25.00;;;;;;;;5059435;28;45236;-76
2023/05/31 13:04:47;;;;;;;;;23.00;21.00;;;;;;;;5059837;28;45682;-78
2023/05/31 13:07:13;;;;;;;;;37.00;32.33;;;;;;;;5057436;28;46080;-79
2023/05/31 13:09:38;;;;;;;;;22.33;22.00;;;;;;;;5046251;28;45843;-81
2023/05/31 13:12:03;;;;;;;;;44.67;35.33;;;;;;;;5059168;28;45374;-80
2023/05/31 13:14:28;;;;;;;;;9.67;8.00;;;;;;;;5058585;28;45476;-76
2023/05/31 13:16:54;;;;;;;;;7.00;6.67;;;;;;;;5048730;28;45675;-78
2023/05/31 13:19:19;;;;;;;;;8.67;8.67;;;;;;;;5040061;28;45319;-79
2023/05/31 13:21:44;;;;;;;;;13.00;12.50;;;;;;;;5059637;28;45331;-79
2023/05/31 13:24:10;;;;;;;;;16.67;16.67;;;;;;;;5055662;28;46323;-78
2023/05/31 13:26:36;;;;;;;;;9.00;8.33;;;;;;;;5053067;28;45423;-81
2023/05/31 13:29:12;;;;;;;;;41.67;33.33;;;;;;;;5052632;28;46803;-82
2023/05/31 13:31:38;;;;;;;;;16.00;16.00;;;;;;;;5061502;28;45362;-76
2023/05/31 13:34:03;;;;;;;;;9.33;9.33;;;;;;;;5063018;28;45308;-78
2023/05/31 13:36:28;;;;;;;;;9.00;8.00;;;;;;;;5060660;28;45920;-78
2023/05/31 13:38:53;;;;;;;;;9.00;8.33;;;;;;;;5061475;28;45344;-79
2023/05/31 13:41:21;;;;;;;;;6.67;6.67;;;;;;;;5062439;28;45410;-76
2023/05/31 13:43:47;;;;;;;;;39.67;32.67;;;;;;;;5062636;28;45284;-79
2023/05/31 13:46:12;;;;;;;;;15.67;15.33;;;;;;;;5060646;28;45809;-78
2023/05/31 13:48:37;;;;;;;;;32.67;28.00;;;;;;;;5062605;28;45204;-82
2023/05/31 13:51:03;;;;;;;;;37.33;31.00;;;;;;;;5062233;28;45407;-78
2023/05/31 13:53:29;;;;;;;;;20.00;19.33;;;;;;;;5061930;28;45461;-77
2023/05/31 13:55:54;;;;;;;;;9.00;9.00;;;;;;;;5062381;28;45250;-77
2023/05/31 13:58:19;;;;;;;;;47.00;38.00;;;;;;;;5062020;28;45232;-79
2023/05/31 14:00:45;;;;;;;;;21.00;19.33;;;;;;;;5061781;28;45240;-78
2023/05/31 14:03:10;;;;;;;;;26.33;23.67;;;;;;;;5062226;28;45444;-81
2023/05/31 14:05:36;;;;;;;;;9.00;9.00;;;;;;;;5061781;28;45311;-76
2023/05/31 14:08:01;;;;;;;;;24.33;23.00;;;;;;;;5061551;28;46179;-80
2023/05/31 14:10:26;;;;;;;;;49.33;39.33;;;;;;;;5061942;28;45407;-78
2023/05/31 14:12:52;;;;;;;;;26.33;25.33;;;;;;;;5060623;28;45477;-78
2023/05/31 14:15:17;;;;;;;;;27.33;26.00;;;;;;;;5061922;28;45344;-79
2023/05/31 14:17:43;;;;;;;;;14.33;13.00;;;;;;;;5061434;28;45601;-80
2023/05/31 14:20:08;;;;;;;;;44.33;36.33;;;;;;;;5061183;28;45372;-82